X  Chiuso Dati meteorologici dell'aviazione (METAR)        EDDE Erfurt
Temperatura
4°C Temperatura
-2°C Punto di rugiada
65% Umidità



Vento
6 KM/O
3 MPH
1 M/S
3 KTS



-1°
VRB
Condizioni attuali

Partly Cloudy with Showers Nearby Parzialmente nuvoloso , docce Aeroporto Vicino
Pressione 1029 (hPa) - 30.39 (inHg)
Visibilità 30 (miglio) - 48 (km)
Aeroporto
Codice-Aeroporto EDDE

Posizione: Erfurt
Distanza: 25 (km)

Metar:
METAR EDDE 141050Z VRB03KT 9999 VCSH FEW025CB SCT049 04/M02 Q1028 NOSIG

Ore: 14.04.2021 12:50 CEST